Time;durP1;ratioP1;P1;durP2;ratioP2;P2;SDS_P1;SDS_P2;PMS_P1;PMS_P2;Temp;Humidity;BMP_temperature;BMP_pressure;BME280_temperature;BME280_humidity;BME280_pressure;Samples;Min_cycle;Max_cycle;Signal;HPM_P1;HPM_P2
2023/10/28 00:00:38;;;;;;;5.73;2.83;;;12.10;99.90;;;;;;4974748;28;20175;-71
2023/10/28 00:03:05;;;;;;;4.53;2.70;;;12.00;99.90;;;;;;4975259;28;20218;-72
2023/10/28 00:05:31;;;;;;;4.60;2.10;;;12.20;99.90;;;;;;4975229;28;20612;-73
2023/10/28 00:07:57;;;;;;;5.53;2.70;;;12.10;99.90;;;;;;4975242;28;20230;-72
2023/10/28 00:10:23;;;;;;;7.57;2.40;;;12.10;99.90;;;;;;4974834;28;20176;-73
2023/10/28 00:12:50;;;;;;;3.50;2.53;;;12.10;99.90;;;;;;4974962;28;20573;-71
2023/10/28 00:15:18;;;;;;;4.47;2.50;;;12.10;99.90;;;;;;4974991;28;20176;-72
2023/10/28 00:17:47;;;;;;;5.13;2.87;;;12.10;99.90;;;;;;4975201;28;20188;-72
2023/10/28 00:20:17;;;;;;;7.20;3.10;;;12.10;99.90;;;;;;4974844;28;20187;-72
2023/10/28 00:22:51;;;;;;;4.30;2.97;;;12.10;99.90;;;;;;4974978;28;20175;-73
2023/10/28 00:25:17;;;;;;;5.73;3.13;;;12.10;99.90;;;;;;4974550;28;20297;-73
2023/10/28 00:27:43;;;;;;;7.10;3.33;;;12.10;99.90;;;;;;4974701;28;20640;-73
2023/10/28 00:30:10;;;;;;;6.57;3.33;;;12.10;99.90;;;;;;4974938;28;20203;-72
2023/10/28 00:32:37;;;;;;;6.07;3.00;;;12.10;99.90;;;;;;4973601;28;20306;-72
2023/10/28 00:35:04;;;;;;;5.40;2.40;;;12.10;99.90;;;;;;4974760;28;20165;-72
2023/10/28 00:37:29;;;;;;;5.13;2.97;;;12.10;99.90;;;;;;4974845;28;20572;-73
2023/10/28 00:39:56;;;;;;;5.43;2.73;;;12.10;99.90;;;;;;4974676;28;20175;-72
2023/10/28 00:42:21;;;;;;;3.93;3.00;;;12.00;99.90;;;;;;4974510;28;20215;-73
2023/10/28 00:44:47;;;;;;;2.90;2.50;;;12.00;99.90;;;;;;4974825;28;20584;-72
2023/10/28 00:47:13;;;;;;;4.63;2.80;;;12.10;99.90;;;;;;4974650;28;20223;-72
2023/10/28 00:49:40;;;;;;;5.27;3.00;;;12.10;99.90;;;;;;4973676;28;20635;-72
2023/10/28 00:52:06;;;;;;;4.27;2.87;;;12.20;99.90;;;;;;4974074;28;20703;-72
2023/10/28 00:54:33;;;;;;;3.73;3.23;;;12.10;99.90;;;;;;4974458;28;20254;-73
2023/10/28 00:56:58;;;;;;;5.07;3.30;;;12.00;99.90;;;;;;4974442;28;20191;-72
2023/10/28 00:59:27;;;;;;;6.03;3.43;;;12.10;99.90;;;;;;4974449;28;20630;-73
2023/10/28 01:01:53;;;;;;;5.10;2.90;;;12.10;99.90;;;;;;4974454;28;20523;-73
2023/10/28 01:04:19;;;;;;;6.60;3.07;;;12.10;99.90;;;;;;4974440;28;20168;-72
2023/10/28 01:06:46;;;;;;;3.17;2.53;;;12.00;99.90;;;;;;4974309;28;20168;-72
2023/10/28 01:09:11;;;;;;;3.23;2.60;;;12.00;99.90;;;;;;4974370;28;20186;-73
2023/10/28 01:11:39;;;;;;;3.33;3.00;;;11.90;99.90;;;;;;4974420;28;20215;-71
2023/10/28 01:14:06;;;;;;;5.43;2.50;;;11.90;99.90;;;;;;4976977;28;20513;-73
2023/10/28 01:16:32;;;;;;;3.27;2.67;;;11.90;99.90;;;;;;4978552;28;20179;-72
2023/10/28 01:18:58;;;;;;;3.00;2.70;;;11.90;99.90;;;;;;4978519;28;20195;-72
2023/10/28 01:21:23;;;;;;;5.00;2.87;;;12.00;99.90;;;;;;4977959;28;20210;-72
2023/10/28 01:23:49;;;;;;;4.10;2.50;;;12.00;99.90;;;;;;4977864;28;20725;-72
2023/10/28 01:26:15;;;;;;;4.30;2.90;;;11.90;99.90;;;;;;4978290;28;20183;-71
2023/10/28 01:28:41;;;;;;;3.60;2.70;;;11.90;99.90;;;;;;4976921;28;20282;-71
2023/10/28 01:31:08;;;;;;;4.13;2.70;;;11.90;99.90;;;;;;4977994;28;20211;-72
2023/10/28 01:33:33;;;;;;;4.37;2.83;;;11.90;99.90;;;;;;4978358;28;20180;-72
2023/10/28 01:35:59;;;;;;;6.10;3.03;;;12.00;99.90;;;;;;4977740;28;20191;-73
2023/10/28 01:38:25;;;;;;;4.53;2.60;;;12.00;99.90;;;;;;4977984;28;20207;-71
2023/10/28 01:40:51;;;;;;;3.87;2.90;;;12.00;99.90;;;;;;4977978;28;20649;-73
2023/10/28 01:43:18;;;;;;;4.93;2.80;;;12.00;99.90;;;;;;4978056;28;20199;-73
2023/10/28 01:45:44;;;;;;;5.07;3.20;;;12.00;99.90;;;;;;4977877;28;20186;-72
2023/10/28 01:48:10;;;;;;;4.23;2.83;;;12.00;99.90;;;;;;4977868;28;20644;-72
2023/10/28 01:50:36;;;;;;;4.53;2.87;;;12.00;99.90;;;;;;4977268;28;20183;-72
2023/10/28 01:53:02;;;;;;;5.73;2.93;;;12.00;99.90;;;;;;4977591;28;20217;-72
2023/10/28 01:55:28;;;;;;;6.77;3.23;;;11.90;99.90;;;;;;4977789;28;20214;-72
2023/10/28 01:57:54;;;;;;;7.77;3.30;;;11.90;99.90;;;;;;4977560;28;20180;-72
2023/10/28 02:00:19;;;;;;;6.07;2.97;;;11.90;99.90;;;;;;4977521;28;20168;-71
2023/10/28 02:02:45;;;;;;;4.13;2.53;;;11.90;99.90;;;;;;4977483;28;20183;-72
2023/10/28 02:05:11;;;;;;;3.90;2.80;;;11.90;99.90;;;;;;4977244;28;20203;-72
2023/10/28 02:07:37;;;;;;;5.97;2.70;;;11.90;99.90;;;;;;4977356;28;20172;-71
2023/10/28 02:10:05;;;;;;;5.83;3.10;;;12.00;99.90;;;;;;4977360;28;20172;-71
2023/10/28 02:12:34;;;;;;;5.20;2.60;;;12.10;99.90;;;;;;4977401;28;20226;-72
2023/10/28 02:15:06;;;;;;;7.83;3.23;;;12.00;99.90;;;;;;4977182;28;20179;-72
2023/10/28 02:17:32;;;;;;;4.67;2.97;;;12.10;99.90;;;;;;4977278;28;20184;-70
2023/10/28 02:19:58;;;;;;;4.07;3.13;;;12.20;99.90;;;;;;4959359;28;20182;-73
2023/10/28 02:22:24;;;;;;;5.63;3.00;;;12.20;99.90;;;;;;4975831;28;20176;-71
2023/10/28 02:24:50;;;;;;;9.90;3.60;;;12.10;99.90;;;;;;4976510;28;20306;-71
2023/10/28 02:27:15;;;;;;;8.80;3.50;;;12.10;99.90;;;;;;4977123;28;20199;-72
2023/10/28 02:29:41;;;;;;;4.83;3.03;;;12.20;99.90;;;;;;4977090;28;20631;-71
2023/10/28 02:32:08;;;;;;;8.83;3.00;;;12.20;99.90;;;;;;4976976;28;20266;-72
2023/10/28 02:34:35;;;;;;;4.87;2.93;;;12.10;99.90;;;;;;4976591;28;20172;-70
2023/10/28 02:37:00;;;;;;;7.37;3.50;;;12.20;99.90;;;;;;4976999;28;20187;-72
2023/10/28 02:39:26;;;;;;;7.87;3.47;;;12.20;99.90;;;;;;4977004;28;20180;-72
2023/10/28 02:41:53;;;;;;;6.80;3.00;;;12.20;99.90;;;;;;4976896;28;20179;-71
2023/10/28 02:44:19;;;;;;;5.97;3.10;;;12.30;99.90;;;;;;4975521;28;20509;-72
2023/10/28 02:46:44;;;;;;;10.47;3.40;;;12.30;99.90;;;;;;4976880;28;20187;-72
2023/10/28 02:49:11;;;;;;;7.60;3.17;;;12.20;99.90;;;;;;4976323;28;20176;-72
2023/10/28 02:51:37;;;;;;;5.93;3.00;;;12.20;99.90;;;;;;4976398;28;20227;-71
2023/10/28 02:54:03;;;;;;;6.30;3.20;;;12.20;99.90;;;;;;4975622;28;20172;-71
2023/10/28 02:56:29;;;;;;;5.33;3.50;;;12.10;99.90;;;;;;4976702;28;20223;-72
2023/10/28 02:58:55;;;;;;;7.60;3.43;;;12.20;99.90;;;;;;4976526;28;20180;-71
2023/10/28 03:01:20;;;;;;;7.80;3.20;;;12.10;99.90;;;;;;4976380;28;20500;-72
2023/10/28 03:03:46;;;;;;;5.43;3.47;;;12.10;99.90;;;;;;4976024;28;20164;-72
2023/10/28 03:06:12;;;;;;;7.60;3.50;;;12.10;99.90;;;;;;4976584;28;20176;-72
2023/10/28 03:08:38;;;;;;;6.67;3.30;;;12.10;99.90;;;;;;4976407;28;20183;-72
2023/10/28 03:11:04;;;;;;;9.37;3.30;;;12.10;99.90;;;;;;4975935;28;20565;-72
2023/10/28 03:13:30;;;;;;;6.60;3.00;;;12.10;99.90;;;;;;4976295;28;20207;-71
2023/10/28 03:15:56;;;;;;;7.27;2.80;;;12.10;99.90;;;;;;4976070;28;20183;-73
2023/10/28 03:18:22;;;;;;;8.33;3.20;;;12.10;99.90;;;;;;4975670;28;20551;-71
2023/10/28 03:20:48;;;;;;;5.63;3.13;;;12.10;99.90;;;;;;4976023;28;20180;-71
2023/10/28 03:23:14;;;;;;;6.50;3.30;;;12.10;99.90;;;;;;4975972;28;20222;-71
2023/10/28 03:25:40;;;;;;;4.63;3.03;;;12.10;99.90;;;;;;4976055;28;20187;-72
2023/10/28 03:28:06;;;;;;;6.30;3.00;;;12.10;99.90;;;;;;4975906;28;20172;-72
2023/10/28 03:30:32;;;;;;;7.57;2.80;;;12.10;99.90;;;;;;4975576;28;20652;-73
2023/10/28 03:32:58;;;;;;;5.27;2.87;;;12.10;99.90;;;;;;4975243;28;20214;-72
2023/10/28 03:35:24;;;;;;;5.80;3.13;;;12.10;99.90;;;;;;4975266;28;20332;-72
2023/10/28 03:37:50;;;;;;;10.13;2.97;;;12.20;99.90;;;;;;4974460;28;20211;-72
2023/10/28 03:40:15;;;;;;;10.90;2.70;;;12.20;99.90;;;;;;4975678;28;20179;-72
2023/10/28 03:42:41;;;;;;;6.50;2.53;;;12.30;99.90;;;;;;4975705;28;20255;-72
2023/10/28 03:45:07;;;;;;;5.40;2.90;;;12.30;99.90;;;;;;4975736;28;20172;-72
2023/10/28 03:47:33;;;;;;;5.83;2.70;;;12.20;99.90;;;;;;4973656;28;20176;-72
2023/10/28 03:49:59;;;;;;;4.77;2.17;;;12.30;99.90;;;;;;4975392;28;20183;-71
2023/10/28 03:52:26;;;;;;;6.30;2.63;;;12.30;99.90;;;;;;4975428;28;20591;-73
2023/10/28 03:54:51;;;;;;;7.23;2.50;;;12.30;99.90;;;;;;4975217;28;20526;-72
2023/10/28 03:57:17;;;;;;;5.80;2.37;;;12.30;99.90;;;;;;4975181;28;20172;-72
2023/10/28 03:59:45;;;;;;;6.33;2.30;;;12.30;99.90;;;;;;4973914;28;20191;-72
2023/10/28 04:02:11;;;;;;;5.57;2.33;;;12.30;99.90;;;;;;4974817;28;20176;-72
2023/10/28 04:04:36;;;;;;;6.00;2.13;;;12.30;99.90;;;;;;4974958;28;20247;-71
2023/10/28 04:07:02;;;;;;;7.10;2.40;;;12.40;99.90;;;;;;4975306;28;20176;-71
2023/10/28 04:09:28;;;;;;;6.80;2.83;;;12.40;99.90;;;;;;4975093;28;20721;-72
2023/10/28 04:11:54;;;;;;;6.20;2.73;;;12.40;99.90;;;;;;4974815;28;20299;-71
2023/10/28 04:14:19;;;;;;;10.83;2.70;;;12.40;99.90;;;;;;4974803;28;20179;-73
2023/10/28 04:16:45;;;;;;;7.57;2.73;;;12.50;99.90;;;;;;4974103;28;20164;-71
2023/10/28 04:19:11;;;;;;;5.27;2.40;;;12.50;99.90;;;;;;4974638;28;20587;-72
2023/10/28 04:21:37;;;;;;;7.27;2.50;;;12.50;99.90;;;;;;4974863;28;20198;-72
2023/10/28 04:24:04;;;;;;;8.33;2.37;;;12.60;99.90;;;;;;4974638;28;20224;-72
2023/10/28 04:26:30;;;;;;;6.33;2.40;;;12.60;99.90;;;;;;4974881;28;20176;-71
2023/10/28 04:28:59;;;;;;;8.97;2.50;;;12.50;99.90;;;;;;4973523;28;20164;-72
2023/10/28 04:31:27;;;;;;;7.00;2.50;;;12.60;99.90;;;;;;4974218;28;20278;-71
2023/10/28 04:33:53;;;;;;;7.73;2.40;;;12.70;99.90;;;;;;4974784;28;20172;-71
2023/10/28 04:36:18;;;;;;;7.37;2.53;;;12.70;99.90;;;;;;4974608;28;20314;-72
2023/10/28 04:38:44;;;;;;;5.77;2.30;;;12.70;99.90;;;;;;4974997;28;20175;-73
2023/10/28 04:41:10;;;;;;;6.57;2.40;;;12.70;99.90;;;;;;4974387;28;20175;-72
2023/10/28 04:43:35;;;;;;;6.10;2.63;;;12.70;99.90;;;;;;4974510;28;20255;-72
2023/10/28 04:46:01;;;;;;;7.17;2.40;;;12.70;99.90;;;;;;4973143;28;20191;-72
2023/10/28 04:48:29;;;;;;;10.33;2.40;;;12.70;99.90;;;;;;4974401;28;20172;-72
2023/10/28 04:50:55;;;;;;;6.60;2.13;;;12.70;99.90;;;;;;4974188;28;20231;-72
2023/10/28 04:53:22;;;;;;;10.73;2.27;;;12.70;99.90;;;;;;4974025;28;20180;-72
2023/10/28 04:55:48;;;;;;;8.30;2.83;;;12.80;99.90;;;;;;4974146;28;20172;-72
2023/10/28 04:58:14;;;;;;;8.80;2.43;;;12.80;99.90;;;;;;4974346;28;20176;-72
2023/10/28 05:00:40;;;;;;;6.17;2.33;;;12.80;99.90;;;;;;4973905;28;20262;-72
2023/10/28 05:03:06;;;;;;;8.97;2.80;;;12.70;99.90;;;;;;4974329;28;20179;-73
2023/10/28 05:05:31;;;;;;;7.33;2.70;;;12.80;99.90;;;;;;4974160;28;20203;-72
2023/10/28 05:07:57;;;;;;;6.23;2.60;;;12.80;99.90;;;;;;4973984;28;20635;-73
2023/10/28 05:10:23;;;;;;;9.17;2.47;;;12.80;99.90;;;;;;4974191;28;20244;-71
2023/10/28 05:12:49;;;;;;;8.57;2.70;;;12.80;99.90;;;;;;4973625;28;20223;-73
2023/10/28 05:15:15;;;;;;;8.60;2.90;;;12.80;99.90;;;;;;4973893;28;20172;-72
2023/10/28 05:17:41;;;;;;;7.30;2.40;;;12.80;99.90;;;;;;4974204;28;20187;-71
2023/10/28 05:20:08;;;;;;;9.63;2.90;;;12.80;99.90;;;;;;4973805;28;20168;-73
2023/10/28 05:22:44;;;;;;;8.23;2.70;;;12.80;99.90;;;;;;4974105;28;20180;-72
2023/10/28 05:25:09;;;;;;;7.37;2.90;;;12.90;99.90;;;;;;4973882;28;20222;-71
2023/10/28 05:27:36;;;;;;;9.87;2.43;;;12.80;99.90;;;;;;4956517;28;20238;-72
2023/10/28 05:30:02;;;;;;;9.27;2.80;;;12.80;99.90;;;;;;4973833;28;20180;-73
2023/10/28 05:32:31;;;;;;;15.83;2.70;;;12.80;99.90;;;;;;4974172;28;20227;-72
2023/10/28 05:34:57;;;;;;;8.30;2.60;;;12.70;99.90;;;;;;4973800;28;20176;-72
2023/10/28 05:37:23;;;;;;;12.50;3.03;;;12.60;99.90;;;;;;4974179;28;20230;-71
2023/10/28 05:39:49;;;;;;;7.33;2.20;;;12.60;99.90;;;;;;4972525;28;20696;-72
2023/10/28 05:42:15;;;;;;;12.40;2.73;;;12.60;99.90;;;;;;4973540;28;20172;-71
2023/10/28 05:44:41;;;;;;;7.33;2.53;;;12.60;99.90;;;;;;4973540;28;20176;-72
2023/10/28 05:47:10;;;;;;;9.73;3.27;;;12.60;99.90;;;;;;4974036;28;20675;-71
2023/10/28 05:49:36;;;;;;;8.53;2.70;;;12.60;99.90;;;;;;4973537;28;20195;-73
2023/10/28 05:52:01;;;;;;;10.07;2.67;;;12.70;99.90;;;;;;4973423;28;20216;-72
2023/10/28 05:54:27;;;;;;;10.70;2.70;;;12.70;99.90;;;;;;4973679;28;20536;-71
2023/10/28 05:56:54;;;;;;;13.77;2.80;;;12.80;99.90;;;;;;4973574;28;20184;-72
2023/10/28 05:59:20;;;;;;;8.20;2.30;;;12.80;99.90;;;;;;4974943;28;20628;-73
2023/10/28 06:01:46;;;;;;;10.57;2.50;;;12.70;99.90;;;;;;4975882;28;20295;-73
2023/10/28 06:04:11;;;;;;;11.60;2.60;;;12.70;99.90;;;;;;4977244;28;20305;-72
2023/10/28 06:06:37;;;;;;;7.27;2.30;;;12.60;99.90;;;;;;4977407;28;20203;-72
2023/10/28 06:09:03;;;;;;;7.67;2.33;;;12.70;99.90;;;;;;4976203;28;20612;-73
2023/10/28 06:11:29;;;;;;;9.13;2.33;;;12.70;99.90;;;;;;4976342;28;20279;-71
2023/10/28 06:13:55;;;;;;;7.90;2.60;;;12.70;99.90;;;;;;4977254;28;20182;-71
2023/10/28 06:16:20;;;;;;;8.87;2.47;;;12.70;99.90;;;;;;4975908;28;20176;-73
2023/10/28 06:18:46;;;;;;;5.87;2.60;;;12.70;99.90;;;;;;4976590;28;20176;-73
2023/10/28 06:21:14;;;;;;;8.50;2.50;;;12.70;99.90;;;;;;4976930;28;20182;-74
2023/10/28 06:23:40;;;;;;;6.70;2.30;;;12.60;99.90;;;;;;4975463;28;20618;-72
2023/10/28 06:26:10;;;;;;;5.37;2.27;;;12.70;99.90;;;;;;4975121;28;20612;-72
2023/10/28 06:28:37;;;;;;;9.30;2.43;;;12.70;99.90;;;;;;4976830;28;20691;-73
2023/10/28 06:31:02;;;;;;;10.83;2.63;;;12.70;99.90;;;;;;4976500;28;20568;-72
2023/10/28 06:33:28;;;;;;;5.80;2.63;;;12.60;99.90;;;;;;4977026;28;20179;-73
2023/10/28 06:35:54;;;;;;;6.83;2.83;;;12.70;99.90;;;;;;4976657;28;20179;-73
2023/10/28 06:38:20;;;;;;;7.77;2.40;;;12.70;99.90;;;;;;4976600;28;20244;-73
2023/10/28 06:40:48;;;;;;;6.77;2.27;;;12.60;99.90;;;;;;4975788;28;20199;-73
2023/10/28 06:43:15;;;;;;;8.67;2.63;;;12.60;99.90;;;;;;4976581;28;20320;-73
2023/10/28 06:45:41;;;;;;;7.23;2.40;;;12.60;99.90;;;;;;4976435;28;20231;-73
2023/10/28 06:48:07;;;;;;;6.37;2.27;;;12.70;99.90;;;;;;4976252;28;20231;-72
2023/10/28 06:50:33;;;;;;;6.93;2.47;;;12.60;99.90;;;;;;4975863;28;20225;-73
2023/10/28 06:53:01;;;;;;;10.93;2.23;;;12.60;99.90;;;;;;4976122;28;20216;-73
2023/10/28 06:55:27;;;;;;;7.83;2.47;;;12.60;99.90;;;;;;4975752;28;20172;-72
2023/10/28 06:57:54;;;;;;;6.67;2.43;;;12.70;99.90;;;;;;4976318;28;20172;-73
2023/10/28 07:00:23;;;;;;;8.27;2.40;;;12.60;99.90;;;;;;4974730;28;20176;-73
2023/10/28 07:02:49;;;;;;;7.90;2.50;;;12.70;99.90;;;;;;4976074;28;20195;-72
2023/10/28 07:05:15;;;;;;;5.70;2.13;;;12.70;99.90;;;;;;4974876;28;20195;-73
2023/10/28 07:07:40;;;;;;;6.90;2.30;;;12.70;99.90;;;;;;4975979;28;20632;-72
2023/10/28 07:10:07;;;;;;;9.33;2.50;;;12.80;99.90;;;;;;4975027;28;20509;-73
2023/10/28 07:12:32;;;;;;;6.10;1.90;;;12.80;99.90;;;;;;4975116;28;20263;-72
2023/10/28 07:14:58;;;;;;;7.20;2.47;;;12.80;99.90;;;;;;4976013;28;20176;-73
2023/10/28 07:17:24;;;;;;;9.80;2.87;;;12.80;99.90;;;;;;4975997;28;20203;-72
2023/10/28 07:19:52;;;;;;;3.07;1.67;;;12.80;99.90;;;;;;4975617;28;20175;-74
2023/10/28 07:22:20;;;;;;;5.80;2.13;;;12.80;99.90;;;;;;4975541;28;20258;-74
2023/10/28 07:24:46;;;;;;;6.83;2.20;;;12.90;99.90;;;;;;4975264;28;20224;-72
2023/10/28 07:27:12;;;;;;;8.13;2.70;;;12.80;99.90;;;;;;4975629;28;20172;-72
2023/10/28 07:29:38;;;;;;;7.90;2.30;;;12.90;99.90;;;;;;4975423;28;20632;-72
2023/10/28 07:32:05;;;;;;;6.80;2.43;;;13.00;99.90;;;;;;4975870;28;20691;-72
2023/10/28 07:34:32;;;;;;;6.57;2.30;;;13.00;99.90;;;;;;4975567;28;20200;-72
2023/10/28 07:37:03;;;;;;;5.17;2.20;;;13.10;99.90;;;;;;4975822;28;20521;-73
2023/10/28 07:39:30;;;;;;;7.63;2.20;;;13.20;99.90;;;;;;4974824;28;20180;-72
2023/10/28 07:41:56;;;;;;;8.30;2.30;;;13.30;99.90;;;;;;4975695;28;20226;-74
2023/10/28 07:44:21;;;;;;;5.50;2.37;;;13.30;99.90;;;;;;4975018;28;20644;-74
2023/10/28 07:46:47;;;;;;;5.03;2.23;;;13.40;99.90;;;;;;4975868;28;20187;-72
2023/10/28 07:49:13;;;;;;;7.80;2.10;;;13.30;99.90;;;;;;4975178;28;20555;-74
2023/10/28 07:51:39;;;;;;;8.47;2.30;;;13.40;99.90;;;;;;4975036;28;20212;-71
2023/10/28 07:54:06;;;;;;;8.67;2.23;;;13.40;99.90;;;;;;4974837;28;20180;-73
2023/10/28 07:56:32;;;;;;;5.60;1.90;;;13.50;99.90;;;;;;4975072;28;20215;-72
2023/10/28 07:59:01;;;;;;;4.63;1.90;;;13.70;99.90;;;;;;4975279;28;20168;-72
2023/10/28 08:01:28;;;;;;;4.10;2.00;;;14.20;99.90;;;;;;4975019;28;20171;-73
2023/10/28 08:03:53;;;;;;;4.80;1.60;;;14.70;99.90;;;;;;4973716;28;20267;-74
2023/10/28 08:06:19;;;;;;;4.63;2.23;;;14.90;99.90;;;;;;4974246;28;20255;-73
2023/10/28 08:08:46;;;;;;;3.07;1.80;;;15.20;99.90;;;;;;4975040;28;20203;-74
2023/10/28 08:11:13;;;;;;;5.83;2.20;;;15.40;99.90;;;;;;4974796;28;20172;-73
2023/10/28 08:13:40;;;;;;;6.63;2.03;;;15.50;99.90;;;;;;4974984;28;20183;-73
2023/10/28 08:16:09;;;;;;;3.37;1.80;;;15.50;99.90;;;;;;4975083;28;20177;-72
2023/10/28 08:18:35;;;;;;;7.63;1.93;;;15.30;99.90;;;;;;4974513;28;20168;-73
2023/10/28 08:21:01;;;;;;;4.57;2.27;;;14.90;99.90;;;;;;4974415;28;20663;-74
2023/10/28 08:23:28;;;;;;;5.83;1.90;;;14.80;99.90;;;;;;4973674;28;20168;-71
2023/10/28 08:25:55;;;;;;;5.20;1.80;;;14.50;99.90;;;;;;4974817;28;20299;-73
2023/10/28 08:28:21;;;;;;;7.67;1.80;;;14.20;99.90;;;;;;4974366;28;20194;-72
2023/10/28 08:30:47;;;;;;;4.77;1.93;;;14.10;99.90;;;;;;4974070;28;20607;-72
2023/10/28 08:33:12;;;;;;;4.33;1.83;;;14.00;99.90;;;;;;4974494;28;20285;-73
2023/10/28 08:35:38;;;;;;;7.30;1.70;;;14.00;99.90;;;;;;4974712;28;20652;-72
2023/10/28 08:38:06;;;;;;;5.33;2.00;;;13.70;99.90;;;;;;4972801;28;20172;-71
2023/10/28 08:40:33;;;;;;;4.70;1.63;;;14.00;99.90;;;;;;4973993;28;20223;-71
2023/10/28 08:42:59;;;;;;;3.20;1.63;;;14.10;99.90;;;;;;4973958;28;20652;-72
2023/10/28 08:45:26;;;;;;;4.63;1.70;;;14.20;99.90;;;;;;4972733;28;20171;-72
2023/10/28 08:47:53;;;;;;;7.20;1.97;;;14.70;99.90;;;;;;4974475;28;20168;-73
2023/10/28 08:50:24;;;;;;;5.13;1.97;;;14.90;99.90;;;;;;4973547;28;20203;-72
2023/10/28 08:52:54;;;;;;;4.83;1.87;;;14.70;99.90;;;;;;4974022;28;20222;-72
2023/10/28 08:55:21;;;;;;;3.73;1.83;;;14.80;99.90;;;;;;4974041;28;20183;-73
2023/10/28 08:57:47;;;;;;;6.50;2.10;;;15.30;99.90;;;;;;4973985;28;20180;-75
2023/10/28 09:00:17;;;;;;;8.60;2.20;;;15.90;99.90;;;;;;4972896;28;20180;-75
2023/10/28 09:02:46;;;;;;;5.13;1.90;;;16.00;99.90;;;;;;4974093;28;20172;-73
2023/10/28 09:05:16;;;;;;;4.68;2.17;;;16.60;99.90;;;;;;4973568;28;20187;-74
2023/10/28 09:07:43;;;;;;;3.63;2.00;;;17.30;99.90;;;;;;4973805;28;20624;-75
2023/10/28 09:10:10;;;;;;;5.78;2.00;;;18.00;99.90;;;;;;4973629;28;20238;-75
2023/10/28 09:12:36;;;;;;;3.60;1.90;;;18.10;99.90;;;;;;4973903;28;20215;-74
2023/10/28 09:15:03;;;;;;;3.42;1.90;;;18.60;99.90;;;;;;4973895;28;20195;-74
2023/10/28 09:17:29;;;;;;;4.88;2.20;;;18.30;99.90;;;;;;4973544;28;20262;-76
2023/10/28 09:19:56;;;;;;;6.80;2.17;;;18.50;99.90;;;;;;4973505;28;20620;-75
2023/10/28 09:22:23;;;;;;;8.20;2.50;;;18.30;99.90;;;;;;4974166;28;20210;-74
2023/10/28 09:24:52;;;;;;;8.40;2.30;;;18.30;99.90;;;;;;4974083;28;20231;-74
2023/10/28 09:27:17;;;;;;;5.40;2.22;;;18.40;99.90;;;;;;4973983;28;20176;-74
2023/10/28 09:29:43;;;;;;;6.15;2.35;;;18.30;99.90;;;;;;4973039;28;20219;-74
2023/10/28 09:32:10;;;;;;;4.97;2.22;;;17.60;99.90;;;;;;4973485;28;20214;-74
2023/10/28 09:34:38;;;;;;;8.93;2.72;;;17.10;99.90;;;;;;4975138;28;20203;-73
2023/10/28 09:37:08;;;;;;;7.45;2.35;;;17.30;99.90;;;;;;4976640;28;20572;-73
2023/10/28 09:39:35;;;;;;;7.82;2.60;;;17.50;99.90;;;;;;4977628;28;20187;-74
2023/10/28 09:42:02;;;;;;;7.13;2.90;;;17.40;99.90;;;;;;4977301;28;20214;-74
2023/10/28 09:44:28;;;;;;;9.68;2.85;;;17.20;99.90;;;;;;4977244;28;20187;-74
2023/10/28 09:47:05;;;;;;;7.70;2.58;;;17.00;99.90;;;;;;4977638;28;20174;-73
2023/10/28 09:49:31;;;;;;;10.85;2.95;;;17.20;99.90;;;;;;4976910;28;20191;-74
2023/10/28 09:52:06;;;;;;;11.45;3.15;;;16.90;99.90;;;;;;4977143;28;20215;-74
2023/10/28 09:54:42;;;;;;;6.32;2.05;;;16.70;99.90;;;;;;4977512;28;20191;-73
2023/10/28 09:57:10;;;;;;;9.97;2.60;;;16.50;99.90;;;;;;4977599;28;20184;-73
2023/10/28 09:59:39;;;;;;;7.00;2.40;;;16.40;99.90;;;;;;4975529;28;20577;-73
2023/10/28 10:02:22;;;;;;;11.20;3.07;;;16.00;99.90;;;;;;4975839;28;20195;-73
2023/10/28 10:05:03;;;;;;;12.63;2.83;;;15.80;99.90;;;;;;4976184;28;20177;-73
2023/10/28 10:07:29;;;;;;;6.17;2.30;;;15.60;99.90;;;;;;4977445;28;20176;-73
2023/10/28 10:10:05;;;;;;;7.73;2.93;;;15.40;99.90;;;;;;4975138;28;20235;-72
2023/10/28 10:12:31;;;;;;;9.17;3.00;;;15.40;99.90;;;;;;4976702;28;20294;-72
2023/10/28 10:14:58;;;;;;;9.10;3.20;;;15.30;99.90;;;;;;4976831;28;20228;-73
2023/10/28 10:17:40;;;;;;;12.63;3.50;;;15.40;99.90;;;;;;4976313;28;20502;-72
2023/10/28 10:20:06;;;;;;;12.17;3.57;;;15.20;99.90;;;;;;4976295;28;20168;-72
2023/10/28 10:22:33;;;;;;;11.23;3.00;;;15.20;99.90;;;;;;4976941;28;20195;-73
2023/10/28 10:24:59;;;;;;;13.80;3.40;;;15.40;99.90;;;;;;4976427;28;20306;-74
2023/10/28 10:27:42;;;;;;;11.80;3.27;;;15.80;99.90;;;;;;4976536;28;20266;-73
2023/10/28 10:30:09;;;;;;;8.50;3.10;;;16.30;99.90;;;;;;4976668;28;20620;-74
2023/10/28 10:32:45;;;;;;;9.82;2.88;;;17.20;99.90;;;;;;4975065;28;20261;-73
2023/10/28 10:35:30;;;;;;;10.60;3.03;;;17.60;99.90;;;;;;4974952;28;20575;-74
2023/10/28 10:38:04;;;;;;;7.45;3.03;;;17.80;99.90;;;;;;4976463;28;20607;-72
2023/10/28 10:40:32;;;;;;;9.38;3.15;;;17.50;99.90;;;;;;4975994;28;20181;-73
2023/10/28 10:43:10;;;;;;;8.93;3.30;;;17.00;99.90;;;;;;4976451;28;20179;-74
2023/10/28 10:45:37;;;;;;;9.93;3.23;;;16.40;99.90;;;;;;4976232;28;20661;-74
2023/10/28 10:48:09;;;;;;;10.73;3.27;;;16.30;99.90;;;;;;4975745;28;20171;-73
2023/10/28 10:50:36;;;;;;;11.13;3.77;;;16.00;99.90;;;;;;4975658;28;20192;-72
2023/10/28 10:53:03;;;;;;;10.87;3.43;;;15.80;99.90;;;;;;4974355;28;20212;-73
2023/10/28 10:55:29;;;;;;;12.03;3.43;;;15.60;99.90;;;;;;4975731;28;20231;-73
2023/10/28 10:57:55;;;;;;;16.63;3.80;;;15.60;99.90;;;;;;4975628;28;20179;-73
2023/10/28 11:00:22;;;;;;;8.83;3.23;;;15.50;99.90;;;;;;4975894;28;20671;-73
2023/10/28 11:02:49;;;;;;;10.63;3.40;;;15.50;99.90;;;;;;4975673;28;20210;-73
2023/10/28 11:05:15;;;;;;;12.23;3.80;;;15.70;99.90;;;;;;4975347;28;20214;-72
2023/10/28 11:07:45;;;;;;;11.23;3.87;;;15.60;99.90;;;;;;4976261;28;20235;-73
2023/10/28 11:10:11;;;;;;;10.80;3.77;;;15.50;99.90;;;;;;4975706;28;20240;-73
2023/10/28 11:12:38;;;;;;;12.73;3.60;;;15.80;99.90;;;;;;4975506;28;20759;-73
2023/10/28 11:15:05;;;;;;;10.93;3.33;;;15.80;99.90;;;;;;4975703;28;20172;-73
2023/10/28 11:17:31;;;;;;;9.30;3.63;;;15.90;99.90;;;;;;4975818;28;20190;-72
2023/10/28 11:20:03;;;;;;;8.67;2.70;;;15.80;99.90;;;;;;4975215;28;20629;-71
2023/10/28 11:22:29;;;;;;;13.67;3.07;;;15.90;99.90;;;;;;4975466;28;20184;-73
2023/10/28 11:25:03;;;;;;;10.77;3.30;;;16.20;99.90;;;;;;4975677;28;20273;-72
2023/10/28 11:27:29;;;;;;;9.97;3.70;;;16.20;99.90;;;;;;4975248;28;20180;-73
2023/10/28 11:29:56;;;;;;;9.43;3.50;;;16.10;99.90;;;;;;4975031;28;20514;-73
2023/10/28 11:32:22;;;;;;;6.00;3.00;;;16.10;99.90;;;;;;4975457;28;20200;-72
2023/10/28 11:34:48;;;;;;;12.17;3.60;;;16.10;99.90;;;;;;4975159;28;20203;-73
2023/10/28 11:37:14;;;;;;;11.20;3.30;;;16.00;99.90;;;;;;4975380;28;20228;-73
2023/10/28 11:39:42;;;;;;;13.80;3.40;;;16.10;99.90;;;;;;4974986;28;20631;-73
2023/10/28 11:42:12;;;;;;;9.37;3.50;;;16.20;99.90;;;;;;4975264;28;20266;-73
2023/10/28 11:44:49;;;;;;;9.77;3.50;;;16.30;99.90;;;;;;4974863;28;20215;-73
2023/10/28 11:47:14;;;;;;;12.13;3.63;;;16.50;99.90;;;;;;4975006;28;20175;-72
2023/10/28 11:49:40;;;;;;;10.33;3.30;;;16.70;99.90;;;;;;4974822;28;20635;-74
2023/10/28 11:52:06;;;;;;;12.90;3.45;;;16.70;99.90;;;;;;4973677;28;20752;-73
2023/10/28 11:54:33;;;;;;;9.03;3.73;;;16.90;99.90;;;;;;4974935;28;20639;-74
2023/10/28 11:56:59;;;;;;;10.47;3.27;;;17.40;99.90;;;;;;4973599;28;20176;-74
2023/10/28 11:59:25;;;;;;;10.95;3.17;;;17.60;99.90;;;;;;4974745;28;20677;-73
2023/10/28 12:01:52;;;;;;;9.20;3.30;;;17.20;99.90;;;;;;4975155;28;20176;-74
2023/10/28 12:04:18;;;;;;;12.55;2.95;;;17.10;99.90;;;;;;4974642;28;20168;-74
2023/10/28 12:06:44;;;;;;;9.90;3.28;;;16.90;99.90;;;;;;4973062;28;20258;-74
2023/10/28 12:09:14;;;;;;;8.82;3.35;;;16.90;99.90;;;;;;4974380;28;20243;-74
2023/10/28 12:11:40;;;;;;;8.43;3.25;;;16.80;99.90;;;;;;4974005;28;20211;-74
2023/10/28 12:14:07;;;;;;;6.07;2.70;;;16.60;99.90;;;;;;4974372;28;20184;-73
2023/10/28 12:16:40;;;;;;;9.83;3.40;;;16.50;99.90;;;;;;4974031;28;20182;-74
2023/10/28 12:19:07;;;;;;;7.87;2.60;;;16.50;99.90;;;;;;4974794;28;20258;-75
2023/10/28 12:21:37;;;;;;;9.73;3.20;;;16.60;99.90;;;;;;4974285;28;20175;-75
2023/10/28 12:24:03;;;;;;;8.17;3.13;;;16.90;99.90;;;;;;4974600;28;20229;-73
2023/10/28 12:26:29;;;;;;;12.43;3.27;;;16.90;99.90;;;;;;4973986;28;20171;-74
2023/10/28 12:28:56;;;;;;;8.73;2.70;;;16.80;99.90;;;;;;4973838;28;20585;-75
2023/10/28 12:31:22;;;;;;;12.67;3.43;;;16.70;99.90;;;;;;4973983;28;20172;-73
2023/10/28 12:33:49;;;;;;;10.00;3.23;;;16.70;99.90;;;;;;4974623;28;20497;-73
2023/10/28 12:36:16;;;;;;;11.37;3.10;;;16.80;99.90;;;;;;4974432;28;20172;-74
2023/10/28 12:38:42;;;;;;;7.27;3.27;;;16.60;99.90;;;;;;4973135;28;20274;-74
2023/10/28 12:41:08;;;;;;;10.05;2.90;;;16.60;99.90;;;;;;4973854;28;20183;-73
2023/10/28 12:43:35;;;;;;;8.93;2.90;;;16.60;99.90;;;;;;4973704;28;20180;-74